Time;durP1;ratioP1;P1;durP2;ratioP2;P2;SDS_P1;SDS_P2;PMS_P1;PMS_P2;Temp;Humidity;BMP_temperature;BMP_pressure;BME280_temperature;BME280_humidity;BME280_pressure;Samples;Min_cycle;Max_cycle;Signal;HPM_P1;HPM_P2
2021/09/28 00:01:53;;;;;;;4.58;3.00;;;;;;;12.28;66.01;100879.42;1774038;80;20927;-58
2021/09/28 00:04:20;;;;;;;5.45;3.95;;;;;;;12.23;65.90;100877.89;1774096;80;21849;-58
2021/09/28 00:06:48;;;;;;;4.85;3.42;;;;;;;12.16;65.98;100877.11;1774217;80;21017;-57
2021/09/28 00:09:14;;;;;;;3.75;2.83;;;;;;;12.05;66.11;100878.09;1773945;79;20906;-59
2021/09/28 00:11:42;;;;;;;5.77;3.13;;;;;;;11.96;66.41;100879.39;1774390;80;20851;-58
2021/09/28 00:14:11;;;;;;;5.10;3.15;;;;;;;11.97;66.59;100881.05;1773890;80;20862;-58
2021/09/28 00:16:37;;;;;;;6.30;3.10;;;;;;;11.96;66.67;100880.73;1774028;80;21142;-58
2021/09/28 00:19:03;;;;;;;6.00;3.52;;;;;;;11.93;66.84;100875.80;1811354;78;20938;-57
2021/09/28 00:21:31;;;;;;;4.47;3.47;;;;;;;11.93;66.96;100877.14;1759065;81;21541;-58
2021/09/28 00:23:58;;;;;;;6.53;3.33;;;;;;;11.92;67.02;100877.64;1786777;80;20933;-58
2021/09/28 00:26:24;;;;;;;5.70;3.33;;;;;;;11.83;67.08;100876.74;1759098;81;20998;-58
2021/09/28 00:28:51;;;;;;;4.92;3.00;;;;;;;11.73;67.31;100879.38;1759211;81;21123;-58
2021/09/28 00:31:17;;;;;;;5.33;3.50;;;;;;;11.68;67.58;100881.86;1759053;81;20916;-59
2021/09/28 00:33:44;;;;;;;5.92;3.33;;;;;;;11.69;67.69;100882.67;1788066;80;21480;-59
2021/09/28 00:36:10;;;;;;;8.70;3.62;;;;;;;11.64;67.78;100879.81;1761365;80;20978;-58
2021/09/28 00:38:38;;;;;;;4.05;3.12;;;;;;;11.58;68.04;100883.64;1759217;81;20910;-58
2021/09/28 00:41:05;;;;;;;5.65;3.50;;;;;;;11.57;68.16;100875.30;1758734;81;21158;-61
2021/09/28 00:43:50;;;;;;;5.00;3.65;;;;;;;11.58;68.25;100880.14;1787966;80;21569;-58
2021/09/28 00:46:17;;;;;;;5.15;3.37;;;;;;;11.57;68.24;100876.64;1785691;80;21451;-59
2021/09/28 00:48:44;;;;;;;5.58;3.80;;;;;;;11.57;68.27;100881.17;1786837;80;20887;-58
2021/09/28 00:51:11;;;;;;;4.80;3.40;;;;;;;11.51;68.39;100879.34;1786885;80;20932;-59
2021/09/28 00:53:39;;;;;;;5.97;3.62;;;;;;;11.37;68.71;100871.33;1786509;80;21138;-59
2021/09/28 00:56:07;;;;;;;6.97;3.62;;;;;;;11.29;69.07;100876.10;1759178;81;20966;-60
2021/09/28 00:58:35;;;;;;;4.17;3.47;;;;;;;11.24;69.37;100882.10;1788635;80;20947;-57
2021/09/28 01:01:03;;;;;;;;;;;;;;;11.19;69.54;100880.58;1767647;80;21532;-58
2021/09/28 01:03:33;;;;;;;4.67;3.67;;;;;;;11.17;69.63;100879.45;1788955;80;20422;-58
2021/09/28 01:05:59;;;;;;;8.85;3.58;;;;;;;11.15;69.70;100882.84;1787884;80;21080;-59
2021/09/28 01:08:27;;;;;;;5.62;3.47;;;;;;;11.16;69.83;100880.48;1788828;80;20997;-59
2021/09/28 01:10:54;;;;;;;6.10;3.67;;;;;;;11.22;69.85;100880.16;1759283;81;21026;-58
2021/09/28 01:13:23;;;;;;;6.35;3.85;;;;;;;11.27;69.80;100883.55;1759019;81;21393;-59
2021/09/28 01:16:05;;;;;;;4.92;3.67;;;;;;;11.28;69.79;100891.89;1791513;80;20961;-58
2021/09/28 01:18:36;;;;;;;6.60;3.33;;;;;;;11.30;69.73;100887.16;1766920;80;21417;-59
2021/09/28 01:21:07;;;;;;;8.68;3.70;;;;;;;11.27;69.67;100884.89;1788486;78;21555;-57
2021/09/28 01:23:35;;;;;;;6.20;4.00;;;;;;;11.22;69.73;100890.36;1759944;80;20922;-57
2021/09/28 01:26:02;;;;;;;9.25;4.00;;;;;;;11.20;69.75;100892.45;1787872;80;21068;-57
2021/09/28 01:28:28;;;;;;;5.37;3.27;;;;;;;11.20;69.80;100895.13;1759362;81;21449;-61
2021/09/28 01:30:56;;;;;;;4.70;3.65;;;;;;;11.18;69.88;100894.49;1787545;79;21108;-57
2021/09/28 01:33:23;;;;;;;6.47;3.70;;;;;;;11.12;69.93;100889.16;1787111;80;21541;-58
2021/09/28 01:35:49;;;;;;;4.30;3.30;;;;;;;11.07;70.05;100887.59;1758824;81;21144;-57
2021/09/28 01:38:16;;;;;;;7.22;3.77;;;;;;;11.01;70.20;100894.62;1790284;80;22030;-58
2021/09/28 01:40:42;;;;;;;8.08;4.00;;;;;;;10.98;70.32;100888.33;1762448;80;21509;-61
2021/09/28 01:43:10;;;;;;;6.72;4.08;;;;;;;10.93;70.37;100893.51;1764510;80;21126;-58
2021/09/28 01:45:39;;;;;;;5.78;4.10;;;;;;;10.87;70.51;100893.30;1764483;80;21100;-58
2021/09/28 01:48:06;;;;;;;6.00;4.00;;;;;;;10.86;70.66;100893.00;1763101;80;21523;-58
2021/09/28 01:50:33;;;;;;;7.60;4.08;;;;;;;10.87;70.70;100895.97;1790601;80;20970;-58
2021/09/28 01:52:59;;;;;;;5.83;4.00;;;;;;;10.91;70.64;100892.88;1764297;80;20963;-57
2021/09/28 01:55:28;;;;;;;5.50;3.92;;;;;;;10.91;70.62;100892.38;1788995;80;21111;-58
2021/09/28 01:57:56;;;;;;;6.20;3.42;;;;;;;10.85;70.58;100894.02;1759928;80;21000;-59
2021/09/28 02:00:24;;;;;;;6.33;3.98;;;;;;;10.79;70.77;100896.70;1770657;80;21498;-58
2021/09/28 02:02:50;;;;;;;7.90;3.75;;;;;;;10.77;70.84;100895.56;1766590;80;20913;-59
2021/09/28 02:05:18;;;;;;;6.70;3.87;;;;;;;10.74;70.97;100893.83;1767494;80;21005;-59
2021/09/28 02:07:44;;;;;;;9.05;3.98;;;;;;;10.72;71.06;100890.50;1760146;81;21143;-58
2021/09/28 02:10:11;;;;;;;5.60;4.33;;;;;;;10.66;71.12;100895.67;1759312;81;20986;-58
2021/09/28 02:12:39;;;;;;;4.83;3.83;;;;;;;10.59;71.20;100899.39;1757014;81;20922;-61
2021/09/28 02:15:06;;;;;;;7.92;4.22;;;;;;;10.53;71.36;100895.67;1758965;81;21496;-58
2021/09/28 02:17:33;;;;;;;4.47;3.85;;;;;;;10.52;71.49;100896.69;1759347;81;21383;-58
2021/09/28 02:19:59;;;;;;;7.17;4.33;;;;;;;10.56;71.56;100897.94;1759401;81;21138;-59
2021/09/28 02:22:26;;;;;;;6.45;4.45;;;;;;;10.59;71.50;100901.55;1785634;80;20914;-58
2021/09/28 02:24:52;;;;;;;4.92;3.75;;;;;;;10.58;71.37;100899.88;1771837;81;20895;-59
2021/09/28 02:27:19;;;;;;;7.72;4.40;;;;;;;10.50;71.38;100900.91;1772187;80;21582;-59
2021/09/28 02:29:45;;;;;;;9.40;4.35;;;;;;;10.42;71.54;100903.78;1770863;81;20930;-58
2021/09/28 02:32:12;;;;;;;5.53;4.22;;;;;;;10.37;71.72;100906.78;1772398;80;21121;-59
2021/09/28 02:34:38;;;;;;;6.75;4.80;;;;;;;10.36;71.84;100900.58;1785217;80;21032;-58
2021/09/28 02:37:05;;;;;;;7.87;4.65;;;;;;;10.39;71.96;100907.39;1772436;81;20939;-60
2021/09/28 02:39:32;;;;;;;6.12;4.60;;;;;;;10.41;71.97;100910.19;1772081;81;20930;-58
2021/09/28 02:42:00;;;;;;;8.50;4.90;;;;;;;10.43;71.98;100905.97;1772104;81;21002;-58
2021/09/28 02:44:27;;;;;;;8.68;5.10;;;;;;;10.40;71.97;100907.72;1769370;81;21105;-59
2021/09/28 02:46:54;;;;;;;7.53;4.92;;;;;;;10.32;72.10;100908.19;1757703;81;21440;-59
2021/09/28 02:49:21;;;;;;;8.50;4.78;;;;;;;10.24;72.25;100908.36;1772059;81;20885;-57
2021/09/28 02:51:47;;;;;;;7.95;4.80;;;;;;;10.17;72.52;100911.53;1772209;80;20944;-57
2021/09/28 02:54:14;;;;;;;5.78;4.53;;;;;;;10.06;72.88;100910.80;1772091;81;21034;-57
2021/09/28 02:56:40;;;;;;;6.10;4.83;;;;;;;9.98;73.10;100914.46;1771978;81;21198;-58
2021/09/28 02:59:07;;;;;;;10.25;5.25;;;;;;;9.96;73.32;100910.64;1780958;80;21518;-58
2021/09/28 03:01:33;;;;;;;7.08;5.35;;;;;;;9.93;73.45;100911.58;1758300;81;21053;-58
2021/09/28 03:04:00;;;;;;;7.00;5.05;;;;;;;9.91;73.60;100914.45;1772159;81;20971;-58
2021/09/28 03:06:26;;;;;;;9.18;5.37;;;;;;;9.94;73.64;100910.55;1767939;81;21005;-58
2021/09/28 03:08:53;;;;;;;7.00;4.78;;;;;;;9.96;73.61;100915.19;1772191;80;21199;-58
2021/09/28 03:11:20;;;;;;;7.90;4.60;;;;;;;9.96;73.64;100909.30;1772087;80;21031;-59
2021/09/28 03:13:46;;;;;;;7.03;5.17;;;;;;;9.95;73.64;100909.51;1772641;80;21008;-62
2021/09/28 03:16:14;;;;;;;8.18;5.85;;;;;;;9.91;73.68;100915.80;1772252;81;20884;-58
2021/09/28 03:18:42;;;;;;;11.40;5.40;;;;;;;9.90;73.74;100915.47;1772161;81;20980;-58
2021/09/28 03:21:08;;;;;;;12.03;7.72;;;;;;;9.94;73.79;100920.75;1772095;81;21786;-58
2021/09/28 03:23:35;;;;;;;12.30;7.00;;;;;;;10.00;73.64;100920.46;1746700;81;21570;-61
2021/09/28 03:26:01;;;;;;;10.78;5.80;;;;;;;10.03;73.59;100920.05;1779588;80;21039;-57
2021/09/28 03:28:31;;;;;;;7.80;6.05;;;;;;;10.06;73.47;100922.33;1778847;80;20966;-60
2021/09/28 03:30:59;;;;;;;8.93;5.95;;;;;;;10.10;73.35;100924.08;1786245;79;20966;-57
2021/09/28 03:33:26;;;;;;;8.18;5.35;;;;;;;10.10;73.20;100922.73;1771712;80;21123;-57
2021/09/28 03:35:53;;;;;;;8.93;6.42;;;;;;;10.11;73.09;100920.38;1781582;80;20994;-58
2021/09/28 03:38:21;;;;;;;10.13;5.95;;;;;;;10.10;72.92;100927.61;1781568;79;21035;-58
2021/09/28 03:40:47;;;;;;;8.33;5.10;;;;;;;10.10;72.86;100926.76;1780684;79;21487;-58
2021/09/28 03:43:15;;;;;;;9.15;5.22;;;;;;;10.10;72.87;100929.44;1782286;80;21669;-57
2021/09/28 03:45:41;;;;;;;7.70;5.33;;;;;;;10.13;72.76;100930.41;1781311;79;21099;-58
2021/09/28 03:48:09;;;;;;;9.50;5.08;;;;;;;10.10;72.47;100930.28;1781466;80;20953;-58
2021/09/28 03:50:37;;;;;;;7.28;5.30;;;;;;;10.00;72.53;100928.50;1781819;79;20933;-59
2021/09/28 03:53:05;;;;;;;8.90;5.80;;;;;;;9.93;72.68;100932.47;1782091;79;21047;-58
2021/09/28 03:55:32;;;;;;;8.88;5.70;;;;;;;9.97;72.79;100939.09;1782079;80;21061;-58
2021/09/28 03:58:01;;;;;;;9.55;5.60;;;;;;;9.99;72.69;100941.05;1776724;80;21138;-58
2021/09/28 04:00:28;;;;;;;9.33;5.87;;;;;;;10.03;72.58;100946.03;1778322;79;20984;-59
2021/09/28 04:02:54;;;;;;;9.00;5.40;;;;;;;10.05;72.48;100944.78;1778701;80;20901;-59
2021/09/28 04:05:21;;;;;;;9.48;5.78;;;;;;;10.05;72.27;100943.44;1780578;80;20926;-58
2021/09/28 04:07:48;;;;;;;9.80;5.90;;;;;;;10.02;72.05;100943.03;1781236;80;21009;-58
2021/09/28 04:10:15;;;;;;;7.05;4.87;;;;;;;9.96;72.02;100941.97;1781338;80;21484;-58
2021/09/28 04:12:43;;;;;;;9.08;5.95;;;;;;;9.91;72.15;100943.06;1781059;80;20969;-59
2021/09/28 04:15:11;;;;;;;10.75;6.30;;;;;;;9.93;72.25;100950.41;1779941;79;21570;-59
2021/09/28 04:17:37;;;;;;;7.20;5.03;;;;;;;9.99;72.26;100952.28;1776649;80;21004;-58
2021/09/28 04:20:06;;;;;;;11.40;5.65;;;;;;;10.06;72.05;100949.12;1781862;79;21041;-58
2021/09/28 04:22:33;;;;;;;8.80;5.15;;;;;;;10.06;71.81;100957.68;1779807;80;21777;-57
2021/09/28 04:25:04;;;;;;;10.88;5.95;;;;;;;10.00;71.97;100956.63;1780441;80;20950;-59
2021/09/28 04:27:30;;;;;;;8.45;5.33;;;;;;;10.03;71.85;100956.22;1781564;79;21033;-57
2021/09/28 04:29:57;;;;;;;16.80;6.42;;;;;;;10.09;71.66;100962.63;1775322;80;21565;-58
2021/09/28 04:32:24;;;;;;;18.25;6.12;;;;;;;10.23;71.71;100963.49;1773863;80;21060;-58
2021/09/28 04:34:51;;;;;;;8.73;5.78;;;;;;;10.84;71.44;100966.13;1774037;80;21219;-59
2021/09/28 04:37:17;;;;;;;10.13;6.03;;;;;;;11.88;69.88;100959.69;1774148;80;21525;-57
2021/09/28 04:39:44;;;;;;;8.98;5.95;;;;;;;13.06;67.10;100958.91;1773954;80;21034;-59
2021/09/28 04:42:11;;;;;;;9.05;5.70;;;;;;;14.25;63.67;100961.06;1773871;80;20918;-58
2021/09/28 04:44:37;;;;;;;18.00;5.80;;;;;;;15.28;59.60;100961.77;1774075;80;20993;-59
2021/09/28 04:47:04;;;;;;;9.30;6.05;;;;;;;16.09;56.51;100962.44;1773661;80;21132;-58
2021/09/28 04:49:31;;;;;;;8.30;5.60;;;;;;;16.78;53.89;100970.49;1773978;80;20836;-58
2021/09/28 04:51:57;;;;;;;10.10;5.90;;;;;;;17.37;51.89;100966.53;1774193;80;21521;-59
2021/09/28 04:54:24;;;;;;;13.58;6.28;;;;;;;17.82;49.96;100970.13;1774007;80;20999;-59
2021/09/28 04:56:52;;;;;;;6.70;4.95;;;;;;;18.10;49.07;100973.76;1773862;80;20994;-59
2021/09/28 04:59:19;;;;;;;6.80;5.17;;;;;;;18.28;48.09;100973.95;1773922;80;21030;-58
2021/09/28 05:01:45;;;;;;;8.43;5.40;;;;;;;18.27;47.37;100969.07;1773889;80;21044;-59
2021/09/28 05:04:12;;;;;;;9.10;5.33;;;;;;;18.15;47.09;100969.22;1773969;80;20918;-59
2021/09/28 05:06:38;;;;;;;5.87;4.70;;;;;;;18.02;47.28;100975.84;1773997;80;21472;-59
2021/09/28 05:09:05;;;;;;;8.53;5.33;;;;;;;17.87;47.42;100975.61;1773998;80;20995;-58
2021/09/28 05:11:32;;;;;;;6.78;5.03;;;;;;;17.72;47.70;100977.59;1807666;78;22338;-59
2021/09/28 05:14:00;;;;;;;7.78;4.92;;;;;;;17.49;48.08;100981.33;1811332;78;20957;-58
2021/09/28 05:16:27;;;;;;;6.92;5.20;;;;;;;17.18;48.47;100981.42;1759249;81;21006;-58
2021/09/28 05:18:53;;;;;;;7.35;4.90;;;;;;;16.89;49.02;100987.75;1759899;81;20974;-59
2021/09/28 05:21:20;;;;;;;16.35;9.40;;;;;;;16.46;49.52;100982.37;1787507;80;21585;-57
2021/09/28 05:23:47;;;;;;;10.03;5.15;;;;;;;15.99;50.83;100979.30;1754516;81;21163;-59
2021/09/28 05:26:13;;;;;;;7.05;5.00;;;;;;;15.78;51.71;100984.79;1759194;81;21532;-59
2021/09/28 05:28:40;;;;;;;8.58;4.97;;;;;;;15.64;51.92;100984.75;1759180;81;20969;-61
2021/09/28 05:31:07;;;;;;;7.72;4.97;;;;;;;15.45;52.36;100988.91;1786585;80;20969;-60
2021/09/28 05:33:35;;;;;;;6.75;4.83;;;;;;;15.28;53.17;100986.63;1786971;79;20980;-60
2021/09/28 05:36:02;;;;;;;5.50;4.85;;;;;;;15.15;53.21;100991.71;1786651;80;21194;-61
2021/09/28 05:38:29;;;;;;;9.23;5.45;;;;;;;15.01;53.57;100989.77;1786915;79;21514;-62
2021/09/28 05:40:55;;;;;;;9.80;5.60;;;;;;;14.81;53.83;101000.36;1759063;81;21040;-60
2021/09/28 05:43:22;;;;;;;8.30;5.25;;;;;;;14.55;54.45;100996.95;1759090;81;21069;-62
2021/09/28 05:45:49;;;;;;;12.78;5.75;;;;;;;14.24;55.31;101001.23;1758683;81;21520;-60
2021/09/28 05:48:15;;;;;;;9.10;5.83;;;;;;;13.97;56.06;101001.53;1787004;79;21153;-60
2021/09/28 05:50:43;;;;;;;10.90;6.20;;;;;;;13.70;56.88;101004.52;1786778;80;20920;-58
2021/09/28 05:53:10;;;;;;;11.38;6.42;;;;;;;13.49;57.68;101005.25;1786876;79;20894;-59
2021/09/28 05:55:38;;;;;;;11.28;6.55;;;;;;;13.30;58.10;101012.96;1786680;80;20976;-59
2021/09/28 05:58:04;;;;;;;10.60;5.45;;;;;;;13.10;58.84;101015.80;1758834;80;20989;-59
2021/09/28 06:00:31;;;;;;;12.28;6.12;;;;;;;12.94;59.39;101014.47;1759238;81;21120;-59
2021/09/28 06:02:57;;;;;;;9.50;5.67;;;;;;;12.82;59.83;101018.38;1786592;80;21033;-59
2021/09/28 06:05:24;;;;;;;8.23;6.12;;;;;;;12.71;60.36;101016.41;1786347;80;21093;-59
2021/09/28 06:07:51;;;;;;;9.60;5.58;;;;;;;12.62;60.79;101017.17;1786165;80;20936;-62
2021/09/28 06:10:17;;;;;;;10.00;5.72;;;;;;;12.48;60.87;101017.75;1787743;80;21040;-58
2021/09/28 06:12:45;;;;;;;7.92;5.90;;;;;;;12.31;61.73;101015.25;1759116;81;20944;-61
2021/09/28 06:15:14;;;;;;;11.40;5.75;;;;;;;12.29;62.23;101019.49;1758582;81;20983;-60
2021/09/28 06:17:40;;;;;;;9.13;6.35;;;;;;;12.34;62.24;101018.34;1759168;81;21006;-59
2021/09/28 06:20:09;;;;;;;10.30;6.25;;;;;;;12.43;61.99;101020.28;1787291;80;21093;-59
2021/09/28 06:22:36;;;;;;;13.10;6.00;;;;;;;12.40;61.83;101019.36;1786796;80;21506;-64
2021/09/28 06:25:03;;;;;;;12.98;5.80;;;;;;;12.35;61.85;101021.85;1754329;81;21037;-59
2021/09/28 06:27:29;;;;;;;11.35;6.85;;;;;;;12.26;62.04;101027.48;1782477;80;21584;-59
2021/09/28 06:29:56;;;;;;;12.20;7.25;;;;;;;12.26;62.26;101026.64;1781164;80;20921;-62
2021/09/28 06:32:23;;;;;;;16.50;7.10;;;;;;;12.22;62.22;101033.48;1781728;79;21484;-62
2021/09/28 06:34:50;;;;;;;8.30;6.10;;;;;;;12.13;62.65;101033.41;1782788;80;21581;-58
2021/09/28 06:37:16;;;;;;;9.60;6.12;;;;;;;12.07;62.85;101036.42;1772201;81;21147;-59
2021/09/28 06:39:45;;;;;;;17.90;5.53;;;;;;;12.07;62.94;101037.27;1772259;79;21032;-60
2021/09/28 06:42:11;;;;;;;9.28;5.70;;;;;;;12.07;63.11;101042.65;1772173;80;20994;-63
2021/09/28 06:44:38;;;;;;;11.55;5.65;;;;;;;12.11;63.00;101039.53;1772057;81;20909;-58
2021/09/28 06:47:04;;;;;;;12.63;6.47;;;;;;;12.14;63.09;101039.11;1772290;81;21485;-60
2021/09/28 06:49:31;;;;;;;11.43;5.50;;;;;;;12.13;62.92;101037.45;1772341;79;21145;-60
2021/09/28 06:51:59;;;;;;;9.35;5.80;;;;;;;12.08;62.99;101034.05;1757531;81;20923;-64
2021/09/28 06:54:26;;;;;;;10.55;5.80;;;;;;;12.03;63.02;101043.29;1807244;77;21536;-62
2021/09/28 06:56:52;;;;;;;11.45;6.20;;;;;;;11.96;63.22;101045.98;1772195;81;20970;-59
2021/09/28 06:59:19;;;;;;;19.10;7.15;;;;;;;11.96;63.33;101048.67;1770664;81;20939;-63
2021/09/28 07:01:47;;;;;;;11.97;6.50;;;;;;;11.91;63.27;101053.80;1770723;81;21536;-60
2021/09/28 07:04:14;;;;;;;11.73;5.78;;;;;;;11.77;63.62;101047.64;1772340;81;20949;-60
2021/09/28 07:06:40;;;;;;;10.40;5.37;;;;;;;11.72;64.02;101053.64;1782076;80;20919;-58
2021/09/28 07:09:07;;;;;;;16.93;6.55;;;;;;;11.78;64.11;101052.48;1782193;80;21504;-59
2021/09/28 07:11:33;;;;;;;11.75;5.55;;;;;;;11.83;63.95;101056.20;1782434;79;20927;-60
2021/09/28 07:14:02;;;;;;;10.50;5.72;;;;;;;11.86;63.97;101053.62;1781556;79;21566;-60
2021/09/28 07:16:30;;;;;;;11.40;5.67;;;;;;;11.89;64.07;101058.56;1770578;81;20911;-63
2021/09/28 07:18:57;;;;;;;14.85;6.30;;;;;;;11.93;63.95;101065.20;1770962;81;21020;-59
2021/09/28 07:21:23;;;;;;;15.53;5.58;;;;;;;11.97;63.92;101074.51;1772418;80;21008;-59
2021/09/28 07:23:50;;;;;;;14.73;6.05;;;;;;;12.00;63.76;101078.12;1768060;81;21026;-58
2021/09/28 07:26:16;;;;;;;11.18;5.33;;;;;;;12.02;63.93;101065.28;1811991;78;21111;-58
2021/09/28 07:28:43;;;;;;;10.93;6.35;;;;;;;12.08;63.85;101067.13;1796880;79;21373;-62
2021/09/28 07:31:11;;;;;;;13.18;5.45;;;;;;;12.13;63.66;101064.33;1796632;79;21567;-61
2021/09/28 07:33:38;;;;;;;12.65;5.95;;;;;;;12.14;63.45;101063.30;1795157;80;21021;-62
2021/09/28 07:36:07;;;;;;;17.07;6.75;;;;;;;12.09;63.10;101065.28;1796670;79;20962;-59
2021/09/28 07:38:34;;;;;;;11.53;5.65;;;;;;;11.98;63.42;101068.61;1793782;79;21790;-57
2021/09/28 07:41:02;;;;;;;12.25;5.95;;;;;;;11.92;63.82;101070.23;1793722;80;21465;-58
2021/09/28 07:43:29;;;;;;;13.47;6.53;;;;;;;11.96;63.94;101075.53;1796930;79;21504;-58
2021/09/28 07:45:57;;;;;;;11.68;5.97;;;;;;;11.98;63.95;101078.83;1796793;79;20918;-59
2021/09/28 07:48:24;;;;;;;14.68;6.67;;;;;;;12.03;64.21;101072.84;1796785;79;21025;-59
2021/09/28 07:50:51;;;;;;;14.75;6.00;;;;;;;12.18;64.34;101075.28;1795540;80;21115;-59
2021/09/28 07:53:19;;;;;;;8.55;5.83;;;;;;;12.34;63.98;101073.47;1791398;79;21488;-59
2021/09/28 07:55:46;;;;;;;9.58;5.15;;;;;;;12.47;63.48;101077.13;1796897;79;20990;-60
2021/09/28 07:58:13;;;;;;;12.80;5.80;;;;;;;12.58;63.19;101080.50;1796928;79;20878;-59
2021/09/28 08:00:40;;;;;;;10.90;5.47;;;;;;;12.65;62.68;101081.30;1796731;79;21441;-58
2021/09/28 08:03:07;;;;;;;13.28;5.85;;;;;;;12.63;62.68;101083.36;1795199;80;21137;-58
2021/09/28 08:05:34;;;;;;;16.95;6.12;;;;;;;12.61;62.65;101082.23;1796789;79;20884;-61
2021/09/28 08:08:01;;;;;;;12.10;5.20;;;;;;;12.64;62.75;101078.83;1797029;79;20982;-60
2021/09/28 08:10:28;;;;;;;8.95;5.03;;;;;;;12.65;62.46;101085.33;1796911;78;20935;-59
2021/09/28 08:12:58;;;;;;;13.20;5.28;;;;;;;12.62;62.43;101083.08;1795491;80;20908;-58
2021/09/28 08:15:25;;;;;;;19.25;6.00;;;;;;;12.64;62.54;101090.93;1813373;78;21034;-59
2021/09/28 08:17:51;;;;;;;11.48;5.25;;;;;;;12.70;62.47;101083.34;1811114;78;21610;-59
2021/09/28 08:20:19;;;;;;;15.50;5.53;;;;;;;12.71;62.13;101086.34;1797136;78;20925;-57
2021/09/28 08:22:46;;;;;;;13.72;5.65;;;;;;;12.74;62.32;101080.00;1797045;79;20936;-60
2021/09/28 08:25:16;;;;;;;12.30;5.45;;;;;;;12.83;62.34;101077.89;1796682;79;20953;-58
2021/09/28 08:30:26;;;;;;;12.98;6.10;;;;;;;13.01;61.97;101087.91;1791447;80;20990;-59
2021/09/28 08:32:52;;;;;;;16.60;6.37;;;;;;;13.11;61.96;101087.45;1796625;79;20944;-60
2021/09/28 08:35:19;;;;;;;14.10;6.10;;;;;;;13.20;61.58;101088.02;1796780;79;20966;-59
2021/09/28 08:37:46;;;;;;;16.70;6.92;;;;;;;13.23;61.40;101090.27;1797249;79;20895;-59
2021/09/28 08:40:14;;;;;;;13.83;5.33;;;;;;;13.25;60.95;101089.52;1796801;79;21805;-59
2021/09/28 08:42:41;;;;;;;16.17;6.28;;;;;;;13.25;61.08;101091.70;1795546;80;28248;-59
2021/09/28 08:45:08;;;;;;;21.25;6.70;;;;;;;13.29;60.93;101096.12;1796774;79;20967;-60
2021/09/28 08:47:37;;;;;;;18.48;6.70;;;;;;;13.31;60.87;101094.05;1793461;79;21034;-58
2021/09/28 08:50:12;;;;;;;16.77;5.72;;;;;;;13.35;61.09;101100.66;1796893;79;21021;-59
2021/09/28 08:52:41;;;;;;;12.45;5.17;;;;;;;13.42;60.97;101091.20;1795493;80;21793;-61
2021/09/28 08:55:08;;;;;;;14.70;6.05;;;;;;;13.51;60.69;101090.41;1796697;79;21003;-59
2021/09/28 08:57:35;;;;;;;15.70;5.87;;;;;;;13.49;60.66;101089.28;1797319;79;20885;-59
2021/09/28 09:00:02;;;;;;;20.43;6.22;;;;;;;13.48;60.73;101092.47;1796802;79;21083;-58
2021/09/28 09:02:45;;;;;;;12.93;6.08;;;;;;;13.43;60.53;101090.16;1770586;80;21042;-59
2021/09/28 09:05:14;;;;;;;17.10;6.08;;;;;;;13.36;60.78;101093.42;1763645;80;21150;-58
2021/09/28 09:07:41;;;;;;;17.40;6.22;;;;;;;13.21;61.00;101093.18;1792097;80;20927;-60
2021/09/28 09:10:11;;;;;;;;;;;;;;;13.11;61.37;101094.18;1799610;79;20981;-60
2021/09/28 09:12:40;;;;;;;16.20;5.65;;;;;;;13.09;61.43;101096.27;1797202;79;20185;-60
2021/09/28 09:15:25;;;;;;;12.68;4.95;;;;;;;13.09;61.59;101090.36;1796737;79;20954;-59
2021/09/28 09:17:55;;;;;;;14.90;5.03;;;;;;;13.09;61.71;101087.67;1795476;79;21138;-59
2021/09/28 09:20:30;;;;;;;16.02;5.78;;;;;;;13.17;61.82;101091.14;1796146;79;20890;-59
2021/09/28 09:23:18;;;;;;;16.95;6.22;;;;;;;13.30;61.56;101096.44;1795538;80;20898;-59
2021/09/28 09:25:45;;;;;;;21.40;5.90;;;;;;;13.39;61.15;101097.84;1797131;79;20981;-58
2021/09/28 09:28:31;;;;;;;14.60;5.92;;;;;;;13.49;60.93;101098.17;1796885;79;20954;-60
2021/09/28 09:30:52;;;;;;;13.25;5.92;;;;;;;13.56;60.54;101098.13;1795326;79;21087;-59
2021/09/28 09:33:23;;;;;;;18.90;6.10;;;;;;;13.55;60.65;101099.16;1796869;79;20939;-59
2021/09/28 09:35:58;;;;;;;15.72;6.33;;;;;;;13.63;60.38;101099.41;1796762;79;20989;-63
2021/09/28 09:38:25;;;;;;;15.38;6.17;;;;;;;13.64;60.12;101099.72;1792843;80;20986;-59
2021/09/28 09:40:52;;;;;;;9.55;4.90;;;;;;;13.59;60.39;101099.53;1793918;79;20966;-61
2021/09/28 09:43:31;;;;;;;17.92;6.42;;;;;;;13.60;60.18;101095.80;1796650;79;21186;-61
2021/09/28 09:46:17;;;;;;;14.58;6.25;;;;;;;13.60;60.59;101095.30;1794839;79;21048;-59
2021/09/28 09:48:44;;;;;;;14.00;6.00;;;;;;;13.76;60.98;101095.23;1795945;79;21443;-61
2021/09/28 09:51:14;;;;;;;17.85;6.03;;;;;;;13.98;60.46;101098.88;1796521;79;21028;-61
2021/09/28 09:53:55;;;;;;;14.50;4.92;;;;;;;14.16;59.55;101095.36;1795697;80;21053;-61
2021/09/28 09:56:23;;;;;;;16.20;5.22;;;;;;;14.26;59.14;101099.71;1796444;79;21210;-61
2021/09/28 09:58:49;;;;;;;11.08;5.10;;;;;;;14.39;58.91;101099.28;1772551;79;20898;-59
2021/09/28 10:01:17;;;;;;;17.85;5.33;;;;;;;14.50;58.70;101097.15;1796923;79;20989;-59
2021/09/28 10:03:44;;;;;;;19.00;5.60;;;;;;;14.58;58.52;101098.20;1796516;78;21529;-58
2021/09/28 10:06:12;;;;;;;12.95;4.53;;;;;;;14.62;57.22;101095.89;1795273;80;20979;-59
2021/09/28 10:08:45;;;;;;;19.17;4.83;;;;;;;14.60;57.45;101098.78;1796775;79;22470;-59
2021/09/28 10:11:12;;;;;;;12.50;4.42;;;;;;;14.67;57.49;101098.21;1794589;80;21044;-60
2021/09/28 10:13:47;;;;;;;14.53;4.60;;;;;;;14.73;56.90;101091.08;1785845;79;21500;-58
2021/09/28 10:16:41;;;;;;;12.28;3.98;;;;;;;14.83;56.94;101094.59;1796117;79;20929;-58
2021/09/28 10:19:34;;;;;;;11.78;3.85;;;;;;;14.91;55.84;101095.61;1790003;80;20913;-59
2021/09/28 10:21:59;;;;;;;15.18;4.60;;;;;;;14.88;55.12;101096.91;1792617;79;21933;-59
2021/09/28 10:24:30;;;;;;;13.88;5.37;;;;;;;14.68;55.43;101099.87;1795109;79;20973;-59
2021/09/28 10:27:06;;;;;;;15.15;5.60;;;;;;;14.49;55.90;101102.27;1786679;80;21154;-59
2021/09/28 10:29:45;;;;;;;17.90;4.55;;;;;;;14.33;56.29;101105.86;1756075;81;21034;-59
2021/09/28 10:32:34;;;;;;;12.73;3.92;;;;;;;14.25;56.70;101103.48;1754707;81;20916;-60
2021/09/28 10:35:11;;;;;;;19.40;4.45;;;;;;;14.28;56.50;101104.37;1786581;80;21230;-58
2021/09/28 10:37:59;;;;;;;12.65;4.05;;;;;;;14.35;56.48;101106.98;1786916;80;21034;-59
2021/09/28 10:40:36;;;;;;;15.05;3.70;;;;;;;14.35;55.93;101105.63;1785645;80;21528;-59
2021/09/28 10:43:05;;;;;;;19.00;4.17;;;;;;;14.32;55.57;101107.43;1786540;80;20937;-62
2021/09/28 10:45:38;;;;;;;17.98;5.33;;;;;;;14.22;55.14;101104.44;1785897;80;21041;-58
2021/09/28 10:48:31;;;;;;;15.03;4.17;;;;;;;13.99;55.77;101112.13;1755548;81;21241;-59
2021/09/28 10:51:16;;;;;;;20.65;4.55;;;;;;;13.89;56.63;101113.70;1758940;81;21015;-59
2021/09/28 10:53:50;;;;;;;18.52;4.33;;;;;;;13.94;57.26;101107.10;1783051;80;21567;-57
2021/09/28 10:56:15;;;;;;;12.70;5.05;;;;;;;14.10;57.26;101105.70;1785505;80;20962;-59
2021/09/28 10:59:02;;;;;;;14.23;3.60;;;;;;;14.24;57.39;101100.47;1786927;80;20936;-60
2021/09/28 11:01:30;;;;;;;13.72;4.55;;;;;;;14.39;56.34;101104.67;1786826;80;21150;-59
2021/09/28 11:04:22;;;;;;;16.37;4.87;;;;;;;14.45;55.44;101107.81;1787180;80;20883;-60
2021/09/28 11:06:50;;;;;;;;;;;;;;;14.37;55.13;101101.66;1786003;80;21501;-59
2021/09/28 11:09:19;;;;;;;24.15;4.20;;;;;;;14.32;55.04;101100.69;1786868;79;20434;-59
2021/09/28 11:11:50;;;;;;;21.12;4.50;;;;;;;14.28;54.81;101102.18;1783303;80;21007;-59
2021/09/28 11:14:19;;;;;;;12.53;3.70;;;;;;;14.29;55.53;101100.61;1785449;80;21451;-60
2021/09/28 11:17:00;;;;;;;12.63;3.60;;;;;;;14.39;55.92;101101.98;1786713;79;20968;-58
2021/09/28 11:19:35;;;;;;;12.85;4.22;;;;;;;14.50;55.74;101096.64;1787117;80;20943;-58
2021/09/28 11:22:04;;;;;;;13.85;3.50;;;;;;;14.63;55.02;101094.31;1787335;79;21078;-59
2021/09/28 11:24:31;;;;;;;;;;;;;;;14.71;54.22;101094.02;1761852;79;20950;-59
2021/09/28 11:27:03;;;;;;;12.23;3.60;;;;;;;14.78;53.83;101094.44;1787450;80;22002;-59
2021/09/28 11:29:30;;;;;;;25.30;4.70;;;;;;;14.81;53.49;101088.08;1786681;80;21544;-59
2021/09/28 11:31:59;;;;;;;17.42;4.33;;;;;;;14.82;53.49;101093.75;1759163;81;20983;-59